Time;durP1;ratioP1;P1;durP2;ratioP2;P2;SDS_P1;SDS_P2;PMS_P1;PMS_P2;Temp;Humidity;BMP_temperature;BMP_pressure;BME280_temperature;BME280_humidity;BME280_pressure;Samples;Min_cycle;Max_cycle;Signal;HPM_P1;HPM_P2
2021/10/25 00:04:07;;;;;;;7.53;4.70;;;;;;;2.18;77.71;100834.56;10455094;28;20045;-70
2021/10/25 00:09:08;;;;;;;6.97;4.82;;;;;;;2.06;78.15;100836.97;10456947;28;20041;-70
2021/10/25 00:14:11;;;;;;;8.13;5.03;;;;;;;1.98;78.44;100839.44;10456700;28;20045;-70
2021/10/25 00:19:12;;;;;;;5.38;4.88;;;;;;;1.93;78.91;100843.69;10463685;28;20422;-70
2021/10/25 00:24:14;;;;;;;5.15;4.65;;;;;;;1.97;79.09;100839.41;10463501;28;20045;-70
2021/10/25 00:29:16;;;;;;;7.13;5.68;;;;;;;2.28;79.00;100820.00;10463759;28;20090;-70
2021/10/25 00:34:17;;;;;;;5.25;3.80;;;;;;;2.24;78.10;100824.28;10463524;28;20049;-70
2021/10/25 00:39:19;;;;;;;10.15;5.07;;;;;;;2.12;78.51;100824.09;10464020;28;20045;-69
2021/10/25 00:44:21;;;;;;;6.95;5.05;;;;;;;2.02;78.84;100815.31;10463592;28;20041;-70
2021/10/25 00:49:23;;;;;;;6.97;4.63;;;;;;;1.98;79.40;100817.81;10462274;28;20517;-70
2021/10/25 00:54:24;;;;;;;9.18;5.13;;;;;;;2.05;79.14;100818.81;10461454;28;20049;-71
2021/10/25 00:59:27;;;;;;;5.78;4.75;;;;;;;1.87;79.35;100812.47;10462303;28;20037;-70
2021/10/25 01:04:31;;;;;;;6.82;4.82;;;;;;;1.76;79.57;100814.00;10461319;28;20144;-70
2021/10/25 01:09:35;;;;;;;6.07;4.13;;;;;;;2.05;79.52;100813.63;10461389;28;20060;-70
2021/10/25 01:14:37;;;;;;;7.95;4.22;;;;;;;1.92;79.45;100802.19;10462932;28;20505;-70
2021/10/25 01:19:38;;;;;;;8.85;4.45;;;;;;;1.74;79.19;100806.22;10461486;28;20132;-70
2021/10/25 01:24:43;;;;;;;6.22;4.45;;;;;;;1.73;80.11;100803.63;10460798;28;20514;-70
2021/10/25 01:29:45;;;;;;;6.53;4.63;;;;;;;1.77;79.39;100802.78;10460329;28;20451;-71
2021/10/25 01:34:47;;;;;;;5.35;4.35;;;;;;;2.11;78.90;100795.53;10460712;28;20049;-71
2021/10/25 01:39:49;;;;;;;6.70;4.43;;;;;;;2.00;78.54;100785.91;10461491;28;20065;-70
2021/10/25 01:44:51;;;;;;;9.02;4.60;;;;;;;1.65;79.42;100792.25;10459952;28;20045;-69
2021/10/25 01:49:52;;;;;;;6.63;4.90;;;;;;;1.45;80.12;100782.41;10459636;28;20048;-70
2021/10/25 01:54:54;;;;;;;11.32;4.90;;;;;;;1.63;80.38;100768.88;10460950;28;20033;-70
2021/10/25 01:59:57;;;;;;;5.50;4.70;;;;;;;1.48;80.66;100777.28;10458617;28;20045;-70
2021/10/25 02:05:13;;;;;;;;;;;;;;;1.26;81.32;100781.22;10460024;28;20045;-70
2021/10/25 02:10:15;;;;;;;12.55;4.70;;;;;;;1.43;80.69;100776.34;10459552;28;19921;-69
2021/10/25 02:15:17;;;;;;;5.78;4.68;;;;;;;1.49;80.29;100763.47;10459543;28;20553;-70
2021/10/25 02:20:20;;;;;;;5.93;4.90;;;;;;;1.39;81.06;100760.72;10459350;28;20053;-72
2021/10/25 02:25:23;;;;;;;5.28;4.78;;;;;;;1.19;81.57;100757.75;10459454;28;20037;-69
2021/10/25 02:30:24;;;;;;;7.15;4.60;;;;;;;1.04;82.30;100757.50;10458050;28;20049;-72
2021/10/25 02:35:30;;;;;;;8.30;5.20;;;;;;;1.15;82.19;100758.56;10456812;28;20049;-71
2021/10/25 02:40:31;;;;;;;8.73;5.22;;;;;;;1.00;82.57;100764.34;10455837;28;20506;-71
2021/10/25 02:45:33;;;;;;;6.88;5.47;;;;;;;0.90;82.49;100758.13;10456870;28;20049;-70
2021/10/25 02:50:36;;;;;;;8.07;4.88;;;;;;;0.89;82.89;100758.97;10457315;28;20041;-70
2021/10/25 02:55:38;;;;;;;7.80;5.68;;;;;;;0.94;82.43;100751.28;10456760;28;20457;-71
2021/10/25 03:00:40;;;;;;;8.25;4.97;;;;;;;0.91;82.57;100744.31;10456715;28;20112;-69
2021/10/25 03:05:44;;;;;;;6.35;5.05;;;;;;;1.09;82.44;100742.91;10456115;28;20580;-71
2021/10/25 03:10:45;;;;;;;7.75;5.53;;;;;;;1.06;83.05;100740.25;10456811;28;20048;-71
2021/10/25 03:15:48;;;;;;;6.70;5.53;;;;;;;1.06;82.61;100741.13;10455925;28;20465;-70
2021/10/25 03:20:52;;;;;;;7.50;5.20;;;;;;;0.99;82.77;100737.56;10456302;28;20453;-70
2021/10/25 03:25:58;;;;;;;5.07;4.30;;;;;;;1.00;84.05;100743.63;10455958;28;20045;-70
2021/10/25 03:31:00;;;;;;;8.20;5.22;;;;;;;1.12;84.38;100740.38;10456015;28;20060;-70
2021/10/25 03:36:05;;;;;;;7.63;6.07;;;;;;;1.27;84.05;100736.34;10455857;28;20136;-70
2021/10/25 03:41:16;;;;;;;5.70;4.85;;;;;;;1.35;83.59;100741.66;10456826;28;20045;-70
2021/10/25 03:51:36;;;;;;;7.50;5.20;;;;;;;1.30;83.69;100747.59;10460786;28;20049;-71
2021/10/25 04:02:18;;;;;;;7.80;6.28;;;;;;;1.47;82.42;100743.59;10465749;28;20037;-70
2021/10/25 04:13:26;;;;;;;6.85;5.45;;;;;;;1.35;82.06;100728.69;10463442;28;20094;-70
2021/10/25 04:29:04;;;;;;;7.53;6.05;;;;;;;0.99;82.36;100719.44;10464694;28;20036;-71
2021/10/25 04:34:08;;;;;;;6.95;5.53;;;;;;;1.02;81.88;100716.06;10462539;28;20135;-71
2021/10/25 04:39:24;;;;;;;7.13;6.13;;;;;;;0.93;82.67;100724.53;10464076;28;20060;-71
2021/10/25 04:44:30;;;;;;;9.75;5.95;;;;;;;0.96;82.81;100713.34;10462081;28;20048;-71
2021/10/25 04:49:33;;;;;;;7.75;6.20;;;;;;;0.88;82.35;100720.09;10461664;28;20049;-72
2021/10/25 04:55:13;;;;;;;6.85;6.15;;;;;;;0.80;82.65;100725.16;10449557;28;20558;-71
2021/10/25 05:00:14;;;;;;;8.88;6.97;;;;;;;0.67;83.55;100724.03;10463432;28;20041;-72
2021/10/25 05:05:16;;;;;;;7.60;5.90;;;;;;;0.70;83.13;100721.50;10461855;28;20044;-72
2021/10/25 05:10:18;;;;;;;8.75;7.15;;;;;;;0.70;83.34;100721.50;10461640;28;20090;-71
2021/10/25 05:15:19;;;;;;;12.32;7.28;;;;;;;0.78;83.66;100719.06;10461419;28;20040;-72
2021/10/25 05:20:21;;;;;;;7.22;6.25;;;;;;;0.84;83.69;100705.34;10460982;28;20049;-72
2021/10/25 05:25:24;;;;;;;6.47;5.85;;;;;;;0.77;83.65;100700.91;10461000;28;20045;-71
2021/10/25 05:30:26;;;;;;;14.48;6.95;;;;;;;0.79;83.56;100704.41;10460164;28;20041;-71
2021/10/25 05:35:27;;;;;;;8.88;7.97;;;;;;;0.79;84.17;100699.22;10460152;28;20041;-71
2021/10/25 05:40:29;;;;;;;9.90;7.10;;;;;;;0.81;85.31;100701.00;10459460;28;20041;-71
2021/10/25 05:45:35;;;;;;;8.27;6.38;;;;;;;0.89;85.41;100695.97;10459064;28;20572;-71
2021/10/25 05:50:36;;;;;;;9.15;6.85;;;;;;;0.90;85.42;100698.59;10460414;28;20397;-72
2021/10/25 05:55:40;;;;;;;10.57;6.57;;;;;;;0.99;85.33;100696.16;10458517;28;20049;-72
2021/10/25 06:00:47;;;;;;;9.88;6.97;;;;;;;1.21;85.06;100699.13;10459714;28;20143;-72
2021/10/25 06:06:01;;;;;;;9.38;6.72;;;;;;;1.24;84.11;100705.22;10460575;28;20482;-72
2021/10/25 06:11:03;;;;;;;8.52;6.40;;;;;;;1.26;84.37;100718.19;10459055;28;20099;-73
2021/10/25 06:16:14;;;;;;;13.07;6.90;;;;;;;1.35;84.52;100710.56;10458266;28;20456;-72
2021/10/25 06:21:19;;;;;;;9.93;6.57;;;;;;;1.58;84.12;100716.13;10458271;28;20045;-71
2021/10/25 06:26:21;;;;;;;14.68;6.72;;;;;;;1.89;84.06;100708.78;10458992;28;20037;-72
2021/10/25 06:31:27;;;;;;;6.88;6.18;;;;;;;2.28;81.61;100706.75;10458442;28;20099;-72
2021/10/25 06:36:34;;;;;;;11.93;6.30;;;;;;;2.48;80.88;100714.78;10460474;28;20128;-72
2021/10/25 06:41:53;;;;;;;7.43;5.35;;;;;;;2.54;80.19;100711.38;10459188;28;20053;-71
2021/10/25 06:47:06;;;;;;;7.18;5.25;;;;;;;2.68;79.49;100716.72;10459244;28;20119;-72
2021/10/25 06:52:08;;;;;;;11.57;6.32;;;;;;;2.87;79.31;100721.25;10442378;28;20392;-71
2021/10/25 06:57:10;;;;;;;9.68;6.18;;;;;;;2.93;79.37;100712.66;10458635;28;20079;-70
2021/10/25 07:02:16;;;;;;;12.90;6.95;;;;;;;3.08;78.72;100725.78;10458620;28;20458;-71
2021/10/25 07:07:24;;;;;;;55.80;8.63;;;;;;;3.44;78.13;100721.78;10458147;28;20400;-71
2021/10/25 07:12:27;;;;;;;7.43;5.53;;;;;;;3.65;76.53;100724.56;10458177;28;20423;-71
2021/10/25 07:17:36;;;;;;;9.52;5.75;;;;;;;4.03;74.91;100719.63;10457341;28;20041;-72
2021/10/25 08:01:01;;;;;;;13.05;5.45;;;;;;;5.99;68.18;100716.53;10372180;28;20068;-72
2021/10/25 08:06:10;;;;;;;6.57;4.72;;;;;;;6.18;67.84;100705.16;10358752;28;20052;-72
2021/10/25 08:11:14;;;;;;;7.80;4.93;;;;;;;6.17;66.88;100699.94;10458004;28;20045;-71
2021/10/25 08:16:43;;;;;;;6.57;4.40;;;;;;;6.30;66.61;100705.13;10457375;28;20045;-72
2021/10/25 08:21:45;;;;;;;8.68;4.55;;;;;;;6.25;67.48;100692.97;10456385;28;20522;-72
2021/10/25 08:26:49;;;;;;;6.47;4.20;;;;;;;6.40;67.08;100685.06;10455956;28;20045;-71
2021/10/25 08:42:43;;;;;;;7.43;4.78;;;;;;;6.95;64.88;100682.16;10462478;28;20122;-73
2021/10/25 08:47:49;;;;;;;9.40;4.57;;;;;;;6.97;65.56;100666.44;10446663;28;20045;-72
2021/10/25 08:52:52;;;;;;;7.00;3.78;;;;;;;7.37;64.13;100660.91;10462821;28;20063;-72
2021/10/25 08:58:06;;;;;;;8.40;4.18;;;;;;;7.74;62.15;100658.81;10464717;28;20047;-73
2021/10/25 09:03:09;;;;;;;5.68;3.95;;;;;;;7.98;61.99;100660.31;10430092;28;20052;-72
2021/10/25 09:08:13;;;;;;;8.30;3.92;;;;;;;8.17;61.44;100658.34;10459331;28;20569;-72
2021/10/25 09:13:21;;;;;;;7.57;3.47;;;;;;;8.34;61.28;100644.16;10422674;28;20449;-73
2021/10/25 09:18:30;;;;;;;5.45;3.75;;;;;;;8.32;61.50;100639.81;10440976;28;20060;-72
2021/10/25 09:23:39;;;;;;;6.25;3.90;;;;;;;8.63;60.21;100640.28;10461831;28;20506;-73
2021/10/25 09:28:52;;;;;;;6.82;3.40;;;;;;;8.93;58.93;100631.09;10426631;28;20414;-73
2021/10/25 09:34:08;;;;;;;9.32;3.35;;;;;;;9.13;58.67;100625.56;10421102;28;20046;-72
2021/10/25 09:45:29;;;;;;;4.07;2.83;;;;;;;9.47;57.94;100625.84;10428319;28;20131;-72
2021/10/25 09:50:58;;;;;;;8.15;3.17;;;;;;;9.67;56.91;100619.38;10455806;28;20419;-71
2021/10/25 09:56:03;;;;;;;5.07;3.17;;;;;;;9.85;56.03;100614.63;10424553;28;20132;-72
2021/10/25 10:01:13;;;;;;;5.65;3.35;;;;;;;9.76;55.60;100619.19;10440760;28;20064;-72
2021/10/25 10:06:16;;;;;;;4.45;3.58;;;;;;;9.60;56.20;100618.59;10440292;28;20127;-71
2021/10/25 10:11:31;;;;;;;6.50;3.47;;;;;;;9.98;55.50;100623.13;10438867;28;20053;-72
2021/10/25 10:16:36;;;;;;;10.23;3.37;;;;;;;10.11;55.07;100615.88;10439613;28;20045;-72
2021/10/25 10:21:39;;;;;;;4.00;2.85;;;;;;;10.49;54.10;100619.47;10455984;28;20091;-72
2021/10/25 10:26:55;;;;;;;3.17;2.67;;;;;;;11.03;52.77;100612.09;10460473;28;20045;-72
2021/10/25 10:32:05;;;;;;;5.57;2.88;;;;;;;11.42;53.51;100588.28;10459607;28;20135;-72
2021/10/25 10:37:32;;;;;;;4.55;2.70;;;;;;;12.13;51.80;100587.22;10459457;28;20036;-72
2021/10/25 10:42:36;;;;;;;5.32;3.15;;;;;;;11.90;50.35;100579.97;10458831;28;20049;-72
2021/10/25 10:47:59;;;;;;;7.13;2.42;;;;;;;11.95;50.86;100579.84;10458777;28;20048;-72
2021/10/25 10:53:10;;;;;;;5.13;2.50;;;;;;;12.88;50.18;100571.69;10459647;28;20041;-73
2021/10/25 11:03:25;;;;;;;4.78;2.85;;;;;;;13.99;47.63;100564.31;10459927;28;20048;-72
2021/10/25 11:08:35;;;;;;;4.75;2.50;;;;;;;13.68;46.77;100551.38;10459358;28;20049;-73
2021/10/25 11:13:45;;;;;;;3.92;2.28;;;;;;;13.71;46.68;100555.69;10459215;28;20045;-72
2021/10/25 11:18:49;;;;;;;4.60;2.38;;;;;;;14.17;45.40;100543.41;10457889;28;20045;-72
2021/10/25 11:24:00;;;;;;;4.82;2.90;;;;;;;14.23;45.70;100536.09;10456804;28;20503;-71
2021/10/25 11:29:13;;;;;;;5.90;2.58;;;;;;;14.06;45.34;100531.44;10457367;28;20041;-73
2021/10/25 11:34:38;;;;;;;4.10;2.55;;;;;;;13.68;45.81;100538.19;10458003;28;20091;-73
2021/10/25 11:39:58;;;;;;;4.75;2.90;;;;;;;13.03;47.00;100528.97;10459474;28;20045;-73
2021/10/25 11:45:04;;;;;;;4.57;2.92;;;;;;;12.85;46.80;100525.19;10457607;28;20041;-73
2021/10/25 11:50:07;;;;;;;4.85;3.08;;;;;;;12.57;48.42;100541.06;10458599;28;20051;-73
2021/10/25 11:55:12;;;;;;;5.40;2.97;;;;;;;12.57;48.37;100530.50;10456231;28;20037;-72
2021/10/25 12:00:16;;;;;;;3.05;2.50;;;;;;;12.36;48.81;100518.00;10457310;28;20048;-72
2021/10/25 12:05:24;;;;;;;6.10;3.63;;;;;;;12.19;49.09;100510.59;10440600;28;20068;-72
2021/10/25 12:10:29;;;;;;;8.15;3.28;;;;;;;12.14;48.83;100503.75;10458442;28;20395;-74
2021/10/25 12:15:33;;;;;;;4.53;3.03;;;;;;;11.97;49.85;100501.63;10465281;28;20045;-72
2021/10/25 12:20:40;;;;;;;4.60;3.50;;;;;;;12.12;49.89;100501.16;10448045;28;20053;-72
2021/10/25 12:26:03;;;;;;;6.82;3.90;;;;;;;11.95;49.90;100490.25;10463294;28;20037;-73
2021/10/25 12:31:07;;;;;;;7.05;3.40;;;;;;;11.99;50.16;100482.22;10465154;28;20055;-72
2021/10/25 12:36:11;;;;;;;5.70;3.58;;;;;;;11.98;50.04;100480.50;10465260;28;20441;-73
2021/10/25 12:41:13;;;;;;;5.05;4.20;;;;;;;12.06;49.92;100481.13;10464567;28;20098;-72
2021/10/25 12:46:17;;;;;;;5.82;4.15;;;;;;;11.95;50.07;100467.41;10464749;28;20425;-73
2021/10/25 12:51:20;;;;;;;4.70;3.33;;;;;;;11.93;50.79;100478.91;10463480;28;20414;-73
2021/10/25 12:56:27;;;;;;;7.43;4.45;;;;;;;11.99;50.65;100471.69;10463440;28;20056;-72
2021/10/25 13:01:29;;;;;;;7.85;4.50;;;;;;;12.02;51.13;100466.31;10464248;28;20074;-72
2021/10/25 13:06:32;;;;;;;6.63;3.80;;;;;;;12.03;50.12;100468.03;10463312;28;20430;-73
2021/10/25 13:11:34;;;;;;;6.97;3.63;;;;;;;12.07;50.58;100459.13;10463430;28;20049;-73
2021/10/25 13:16:43;;;;;;;6.07;3.83;;;;;;;12.05;51.14;100454.84;10462666;28;20076;-73
2021/10/25 13:21:47;;;;;;;4.35;3.20;;;;;;;12.19;50.74;100462.31;10463087;28;20045;-72
2021/10/25 13:26:49;;;;;;;5.78;3.70;;;;;;;12.04;51.80;100466.25;10461603;28;20043;-72
2021/10/25 13:31:50;;;;;;;9.20;3.95;;;;;;;12.00;51.62;100448.84;10461872;28;20037;-73
2021/10/25 13:36:52;;;;;;;6.65;3.97;;;;;;;12.26;50.84;100454.16;10462330;28;20064;-72
2021/10/25 13:41:54;;;;;;;6.15;3.33;;;;;;;12.21;50.61;100448.16;10462109;28;20048;-72
2021/10/25 13:46:55;;;;;;;5.95;4.13;;;;;;;12.27;50.20;100452.38;10462529;28;20045;-73
2021/10/25 13:51:57;;;;;;;7.95;3.65;;;;;;;12.16;50.57;100457.97;10461742;28;20457;-73
2021/10/25 13:56:59;;;;;;;5.93;3.35;;;;;;;11.82;51.75;100451.13;10462979;28;20041;-73
2021/10/25 14:02:06;;;;;;;7.13;4.20;;;;;;;11.99;50.76;100441.84;10462736;28;20044;-73
2021/10/25 14:07:13;;;;;;;6.82;4.75;;;;;;;11.83;51.10;100441.47;10462458;28;20051;-73
2021/10/25 14:12:19;;;;;;;10.38;4.70;;;;;;;11.85;50.75;100452.78;10462634;28;20407;-72
2021/10/25 14:17:41;;;;;;;5.38;3.95;;;;;;;11.59;52.10;100459.66;10459088;28;20479;-73
2021/10/25 14:22:43;;;;;;;9.38;4.35;;;;;;;11.26;52.63;100453.59;10460680;28;20048;-73
2021/10/25 14:27:44;;;;;;;7.72;4.40;;;;;;;11.18;52.81;100452.09;10458787;28;20407;-72
2021/10/25 14:32:46;;;;;;;7.40;4.25;;;;;;;11.06;53.60;100437.50;10459537;28;20056;-73
2021/10/25 14:37:48;;;;;;;6.45;4.45;;;;;;;11.18;53.43;100445.06;10459337;28;20463;-72
2021/10/25 14:42:53;;;;;;;10.45;5.78;;;;;;;10.91;54.06;100440.56;10457851;28;20083;-73
2021/10/25 14:58:19;;;;;;;6.43;4.57;;;;;;;10.96;53.52;100447.41;10458838;28;20411;-73
2021/10/25 15:03:22;;;;;;;8.07;5.40;;;;;;;10.81;54.08;100443.44;10458827;28;20048;-72
2021/10/25 15:08:26;;;;;;;7.60;5.45;;;;;;;10.62;54.85;100444.78;10459389;28;20041;-73
2021/10/25 15:13:27;;;;;;;8.43;5.72;;;;;;;10.49;55.13;100446.88;10458257;28;20091;-72
2021/10/25 15:18:29;;;;;;;10.48;6.32;;;;;;;10.23;55.82;100444.84;10457645;28;20039;-73
2021/10/25 15:23:30;;;;;;;12.27;7.05;;;;;;;10.24;56.16;100441.34;10456067;28;20113;-73
2021/10/25 15:28:32;;;;;;;7.25;6.43;;;;;;;10.01;56.91;100441.84;10457291;28;20037;-72
2021/10/25 15:33:36;;;;;;;11.55;6.38;;;;;;;9.98;56.40;100441.91;10458660;28;20049;-72
2021/10/25 15:38:38;;;;;;;8.40;6.20;;;;;;;9.56;57.84;100451.59;10458465;28;20099;-72
2021/10/25 15:43:40;;;;;;;9.10;7.10;;;;;;;9.75;57.06;100442.44;10456220;28;20099;-73
2021/10/25 15:48:42;;;;;;;9.32;7.97;;;;;;;9.55;58.13;100448.09;10462620;28;20075;-72
2021/10/25 15:53:44;;;;;;;12.43;7.05;;;;;;;9.37;59.16;100451.09;10463869;28;20041;-73
2021/10/25 15:58:46;;;;;;;10.95;6.97;;;;;;;9.28;59.08;100446.91;10464939;28;20040;-72
2021/10/25 16:03:48;;;;;;;10.50;6.95;;;;;;;9.02;60.13;100436.91;10464864;28;20049;-73
2021/10/25 16:08:49;;;;;;;9.18;6.63;;;;;;;8.94;60.18;100444.09;10464805;28;20041;-71
2021/10/25 16:13:51;;;;;;;8.77;7.60;;;;;;;8.88;60.32;100452.03;10464686;28;20488;-72
2021/10/25 16:18:53;;;;;;;12.23;8.35;;;;;;;8.70;61.00;100455.84;10478586;22;20760;-69
2021/10/25 16:23:55;;;;;;;10.85;8.35;;;;;;;8.55;61.54;100446.50;10491223;28;20136;-71
2021/10/25 16:28:56;;;;;;;8.90;7.43;;;;;;;8.39;62.21;100455.50;10492581;28;20130;-70
2021/10/25 16:33:58;;;;;;;9.77;7.82;;;;;;;8.38;61.87;100451.16;10502223;28;20044;-70
2021/10/25 16:39:00;;;;;;;11.23;8.80;;;;;;;8.33;62.62;100459.06;10498468;28;20041;-70
2021/10/25 16:44:02;;;;;;;12.30;8.95;;;;;;;8.40;62.24;100470.31;10463465;28;20051;-70
2021/10/25 16:49:10;;;;;;;15.02;8.45;;;;;;;8.24;62.83;100467.06;10498642;28;20535;-69
2021/10/25 17:04:54;;;;;;;10.05;9.15;;;;;;;8.09;63.34;100477.75;10485020;28;20048;-70
2021/10/25 17:09:55;;;;;;;9.90;8.68;;;;;;;8.06;63.51;100483.91;10505454;28;20402;-70
2021/10/25 17:14:57;;;;;;;14.15;9.88;;;;;;;7.85;64.22;100492.06;10503401;28;20086;-72
2021/10/25 17:19:59;;;;;;;14.00;11.13;;;;;;;8.02;63.83;100478.75;10501405;28;20036;-70
2021/10/25 17:25:00;;;;;;;16.05;11.15;;;;;;;7.86;64.37;100479.84;10503020;28;20131;-70
2021/10/25 17:30:03;;;;;;;12.35;10.32;;;;;;;7.56;65.88;100479.34;10503020;28;20044;-71
2021/10/25 17:35:06;;;;;;;10.77;9.82;;;;;;;7.61;65.77;100484.50;10502734;28;20086;-69
2021/10/25 17:40:14;;;;;;;16.40;11.07;;;;;;;7.34;66.61;100479.59;10503323;28;20123;-70
2021/10/25 17:45:16;;;;;;;11.82;10.68;;;;;;;7.39;66.58;100483.91;10502961;28;20045;-69
2021/10/25 17:50:21;;;;;;;12.60;11.40;;;;;;;7.53;66.18;100489.88;10503416;28;20108;-71
2021/10/25 17:55:23;;;;;;;13.30;11.13;;;;;;;7.51;66.41;100481.16;10503256;28;20143;-72
2021/10/25 18:00:25;;;;;;;16.52;12.23;;;;;;;7.40;66.87;100483.03;10500898;28;20057;-70
2021/10/25 18:05:26;;;;;;;13.27;12.07;;;;;;;7.37;67.11;100475.22;10502241;28;20047;-70
2021/10/25 18:10:28;;;;;;;14.75;13.00;;;;;;;7.10;67.95;100490.34;10499591;28;20036;-70
2021/10/25 18:15:30;;;;;;;19.83;13.65;;;;;;;6.97;68.01;100483.50;10501946;28;20045;-70
2021/10/25 18:20:36;;;;;;;20.35;15.98;;;;;;;6.93;68.30;100473.94;10484056;28;20049;-70
2021/10/25 18:25:40;;;;;;;17.73;14.90;;;;;;;6.61;69.59;100463.81;10500757;28;20083;-70
2021/10/25 18:30:46;;;;;;;20.23;16.48;;;;;;;6.73;69.48;100468.91;10501396;28;20098;-71
2021/10/25 18:35:49;;;;;;;18.05;16.55;;;;;;;6.48;70.30;100463.03;10499930;28;20074;-69
2021/10/25 18:40:50;;;;;;;18.10;15.98;;;;;;;6.32;70.42;100468.38;10499667;28;20112;-68
2021/10/25 18:45:56;;;;;;;17.52;15.95;;;;;;;6.38;70.75;100458.78;10500363;28;20094;-69
2021/10/25 18:51:00;;;;;;;20.27;15.40;;;;;;;6.41;71.09;100443.06;10500829;28;20052;-71
2021/10/25 18:56:03;;;;;;;18.58;16.58;;;;;;;6.18;71.32;100454.56;10502378;28;20101;-70
2021/10/25 19:01:04;;;;;;;16.95;15.40;;;;;;;5.95;72.24;100452.09;10499662;28;20052;-69
2021/10/25 19:06:07;;;;;;;15.88;14.40;;;;;;;6.09;72.34;100454.63;10499225;28;20040;-70
2021/10/25 19:11:10;;;;;;;15.65;13.57;;;;;;;6.05;72.18;100464.22;10499940;28;20050;-69
2021/10/25 19:16:12;;;;;;;15.48;14.02;;;;;;;6.30;71.53;100461.44;10499653;28;20051;-70
2021/10/25 19:21:13;;;;;;;17.65;13.95;;;;;;;6.19;71.78;100471.06;10497780;28;20048;-69
2021/10/25 19:26:15;;;;;;;16.02;14.02;;;;;;;6.25;71.48;100471.91;10498857;28;20127;-70
2021/10/25 19:31:17;;;;;;;15.35;13.43;;;;;;;6.42;70.93;100478.75;10499005;28;20063;-69
2021/10/25 19:36:19;;;;;;;13.90;12.55;;;;;;;6.23;71.40;100470.19;10497402;28;20040;-69
2021/10/25 19:41:22;;;;;;;20.50;12.80;;;;;;;6.23;71.43;100468.44;10497449;28;20044;-70
2021/10/25 19:46:24;;;;;;;17.10;13.18;;;;;;;6.47;70.96;100458.69;10497760;28;20072;-69
2021/10/25 19:51:27;;;;;;;15.45;12.80;;;;;;;6.28;70.95;100461.44;10498713;28;20068;-69
2021/10/25 19:56:29;;;;;;;16.15;14.65;;;;;;;6.09;72.00;100469.41;10497672;28;20052;-69
2021/10/25 20:01:31;;;;;;;15.35;12.85;;;;;;;5.88;72.95;100472.97;10497239;28;20044;-69
2021/10/25 20:06:33;;;;;;;14.60;13.30;;;;;;;5.89;72.90;100466.88;10497473;28;20104;-68
2021/10/25 20:11:34;;;;;;;14.73;13.10;;;;;;;6.20;72.27;100465.88;10497331;28;20131;-69
2021/10/25 20:16:36;;;;;;;14.93;13.40;;;;;;;6.09;72.05;100467.66;10498349;28;20230;-69
2021/10/25 20:21:38;;;;;;;15.60;12.40;;;;;;;5.85;72.66;100468.66;10496863;28;20060;-70
2021/10/25 20:26:41;;;;;;;12.52;11.43;;;;;;;5.63;73.55;100473.13;10498672;28;20068;-68
2021/10/25 20:31:43;;;;;;;14.35;12.85;;;;;;;5.57;73.68;100471.38;10501158;28;20049;-67
2021/10/25 20:36:45;;;;;;;12.98;11.68;;;;;;;5.55;73.94;100482.72;10505939;28;20041;-67
2021/10/25 20:41:47;;;;;;;16.05;12.82;;;;;;;5.51;73.91;100479.25;10505236;28;20116;-67
2021/10/25 20:46:49;;;;;;;13.23;12.00;;;;;;;5.55;74.23;100475.75;10503364;28;20041;-67
2021/10/25 20:51:51;;;;;;;14.07;12.00;;;;;;;5.71;74.12;100478.28;10505857;28;20358;-67
2021/10/25 20:56:52;;;;;;;13.43;11.95;;;;;;;5.75;73.45;100473.03;10505541;28;20513;-67
2021/10/25 21:01:54;;;;;;;11.48;10.48;;;;;;;5.62;73.89;100473.09;10504945;28;20040;-69
2021/10/25 21:06:56;;;;;;;12.90;11.30;;;;;;;5.42;74.54;100481.91;10505130;28;20477;-69
2021/10/25 21:11:58;;;;;;;14.88;10.75;;;;;;;5.74;73.54;100473.91;10504743;28;20074;-69
2021/10/25 21:16:59;;;;;;;11.98;10.80;;;;;;;5.67;73.72;100469.63;10504084;28;20049;-69
2021/10/25 21:22:01;;;;;;;15.50;13.02;;;;;;;5.83;73.39;100476.47;10504122;28;20048;-69
2021/10/25 21:27:03;;;;;;;17.23;13.13;;;;;;;5.70;74.14;100477.41;10502039;28;20048;-70
2021/10/25 21:32:05;;;;;;;13.70;12.38;;;;;;;5.62;73.84;100468.75;10503738;28;20083;-68
2021/10/25 21:37:07;;;;;;;15.35;12.07;;;;;;;5.37;74.83;100473.22;10503921;28;20041;-68
2021/10/25 21:42:08;;;;;;;12.40;11.20;;;;;;;5.21;75.39;100474.13;10503126;28;20098;-68
2021/10/25 21:47:10;;;;;;;12.38;11.15;;;;;;;5.12;75.98;100461.13;10503182;28;20433;-68
2021/10/25 21:52:12;;;;;;;13.45;11.60;;;;;;;5.41;75.94;100463.66;10502413;28;20109;-68
2021/10/25 21:57:13;;;;;;;12.25;11.15;;;;;;;5.65;75.48;100457.47;10503126;28;20048;-68
2021/10/25 22:02:15;;;;;;;11.50;10.25;;;;;;;5.42;75.87;100461.03;10502497;28;20044;-69
2021/10/25 22:07:17;;;;;;;12.43;11.18;;;;;;;5.51;75.76;100454.91;10501405;28;20040;-69
2021/10/25 22:38:29;;;;;;;13.23;11.93;;;;;;;5.68;75.37;100460.91;10297835;28;20034;-72
2021/10/25 22:43:32;;;;;;;12.73;11.52;;;;;;;5.90;74.24;100451.25;10295948;28;20054;-72
2021/10/25 22:48:34;;;;;;;13.13;11.00;;;;;;;5.82;74.69;100459.09;10297088;28;20394;-73
2021/10/25 22:53:36;;;;;;;12.98;11.45;;;;;;;5.56;75.44;100460.97;10296113;28;20055;-73
2021/10/25 22:58:38;;;;;;;12.52;11.43;;;;;;;5.61;76.34;100461.81;10294750;28;20062;-73
2021/10/25 23:03:39;;;;;;;13.32;11.93;;;;;;;5.64;76.14;100450.50;10295928;28;20061;-72
2021/10/25 23:08:42;;;;;;;13.80;12.40;;;;;;;5.73;75.51;100453.94;10297074;28;20054;-73
2021/10/25 23:13:43;;;;;;;14.32;11.93;;;;;;;5.34;76.53;100456.72;10295635;28;20058;-73
2021/10/25 23:18:45;;;;;;;11.90;10.70;;;;;;;5.18;77.12;100456.78;10295200;28;20054;-74
2021/10/25 23:23:46;;;;;;;16.73;12.00;;;;;;;5.47;76.85;100453.19;10367693;28;20076;-73
2021/10/25 23:28:48;;;;;;;15.23;12.55;;;;;;;5.46;76.57;100444.50;10375564;28;20096;-73
2021/10/25 23:33:49;;;;;;;12.40;11.15;;;;;;;5.37;77.07;100451.50;10375545;28;20054;-73
2021/10/25 23:38:51;;;;;;;14.43;12.95;;;;;;;5.25;77.79;100447.19;10375763;28;20155;-73
2021/10/25 23:43:53;;;;;;;12.75;11.55;;;;;;;5.55;77.08;100448.81;10375070;28;20411;-73
2021/10/25 23:48:54;;;;;;;13.02;11.82;;;;;;;5.64;76.80;100446.16;10374390;28;20042;-73
2021/10/25 23:53:56;;;;;;;12.95;11.73;;;;;;;5.41;77.17;100440.19;10375458;28;20104;-73
2021/10/25 23:58:58;;;;;;;12.75;11.55;;;;;;;5.62;77.50;100441.81;10375026;28;20092;-73
